Captain Jimmy T Moran — WDE6653 — position and weather

sailwx.info

Track history (hours):
 
Tides and Currents Weather Stations Pressure Air Temp Water Temp Dewpoint Dewpoint Depression Visibility Wind Speed Wind Dir Waves Ship Positions

Captain Jimmy T Moran

Owner: Moran Towing Corp, New Cannan, CT. More information available from US FCC via Universal Licensing System and Coast Guard Vessel Documentation Center.

Last reported at 2016-Aug-04 22:10 UTC. Time now 2016-Aug-31 16:04 UTC.
Position N 29°55' W 090°06'.
Warning: this ship's position is 26 days out of date.

Length 26 m; draft 4.9 m.

Type: Tug. MMSI: 367382920.

Date/timePositionNaut miles runAvg speedWind from/ knotsBaromVisibWave heightAir tempDewpointWater temp
2016-Aug-04 22:10N 29°55' W 090°06'0 0.0
2016-Aug-04 21:33N 29°55' W 090°06'0 0.0
2016-Aug-04 20:33N 29°55' W 090°06'0 0.0
2016-Aug-04 19:32N 29°55' W 090°06'0 0.0
2016-Aug-04 18:32N 29°55' W 090°06'0 0.0
2016-Aug-04 17:33N 29°55' W 090°06'0 0.0
2016-Aug-04 16:33N 29°55' W 090°06'0 0.0
2016-Aug-04 15:33N 29°55' W 090°06'0 0.0
2016-Aug-04 14:33N 29°55' W 090°06'0 0.1
2016-Aug-04 13:33N 29°55' W 090°06'0 0.0
2016-Aug-04 12:33N 29°55' W 090°06'0 0.0
2016-Aug-04 11:33N 29°55' W 090°06'0 0.3
2016-Aug-04 10:33N 29°55' W 090°06'0 0.2
2016-Aug-04 09:34N 29°55' W 090°06'0 0.0
2016-Aug-04 04:33N 29°55' W 090°06'0 0.0
2016-Aug-04 03:32N 29°55' W 090°06'0 0.0
2016-Aug-04 02:33N 29°55' W 090°06'3 3.4
2016-Aug-04 01:33N 29°57' W 090°03'0 0.4
2016-Aug-04 00:34N 29°57' W 090°03'0 0.4
2016-Aug-03 23:33N 29°57' W 090°03'3 3.2
2016-Aug-03 22:33N 29°55' W 090°06'0 0.0
2016-Aug-03 21:34N 29°55' W 090°06'0 0.0
2016-Aug-03 20:33N 29°55' W 090°06'0 0.0
2016-Aug-03 19:33N 29°55' W 090°06'0 0.0
2016-Aug-03 18:34N 29°55' W 090°06'3 3.0
2016-Aug-03 17:34N 29°57' W 090°03'3 2.7
2016-Aug-03 16:33N 29°57' W 090°00'1 0.7
2016-Aug-03 15:33N 29°57' W 090°01'2 1.9
2016-Aug-03 14:33N 29°58' W 090°03'4 3.6
2016-Aug-03 13:34N 29°55' W 090°06'0 0.0
2016-Aug-03 12:33N 29°55' W 090°06'0 0.0
2016-Aug-03 11:33N 29°55' W 090°06'0 0.0
2016-Aug-03 10:34N 29°55' W 090°06'1 0.7
2016-Aug-03 09:33N 29°55' W 090°07'1 0.8
2016-Aug-03 08:33N 29°55' W 090°06'0 0.0
2016-Aug-03 07:33N 29°55' W 090°06'0 0.0
2016-Aug-03 06:33N 29°55' W 090°06'0 0.0
2016-Aug-03 04:33N 29°55' W 090°06'0 0.0
2016-Aug-03 03:33N 29°55' W 090°06'0 0.0
2016-Aug-03 02:33N 29°55' W 090°06'0 0.0
2016-Aug-03 01:33N 29°55' W 090°06'0 0.0
2016-Aug-03 00:33N 29°55' W 090°06'0 0.0
2016-Aug-02 23:34N 29°55' W 090°06'0 0.0
2016-Aug-02 22:33N 29°55' W 090°06'0 0.0
2016-Aug-02 21:33N 29°55' W 090°06'1 0.9
2016-Aug-02 20:34N 29°55' W 090°05'1 1.1
2016-Aug-02 19:33N 29°55' W 090°04'4 4.2
2016-Aug-02 18:33N 29°55' W 090°08'2 2.2
2016-Aug-02 17:33N 29°55' W 090°06'0 0.0
2016-Aug-02 15:20N 29°55' W 090°06'0 0.0
2016-Aug-02 13:33N 29°55' W 090°06'0 0.4
2016-Aug-02 12:32N 29°55' W 090°06'0 0.4
2016-Aug-02 11:33N 29°55' W 090°06'0 0.0
2016-Aug-02 10:33N 29°55' W 090°06'0 0.0
2016-Aug-02 09:33N 29°55' W 090°06'0 0.0
2016-Aug-02 08:33N 29°55' W 090°06'0 0.0
2016-Aug-02 07:33N 29°55' W 090°06'0 0.0
2016-Aug-02 06:24N 29°55' W 090°06'0 0.0
2016-Aug-02 04:33N 29°55' W 090°06'0 0.0
2016-Aug-02 03:33N 29°55' W 090°06'0 0.0
2016-Aug-02 02:25N 29°55' W 090°06'0 0.0
2016-Aug-02 01:33N 29°55' W 090°06'2 1.6
2016-Aug-02 00:09N 29°55' W 090°08'1 1.4
2016-Aug-01 23:33N 29°55' W 090°08'1 0.7
2016-Aug-01 22:34N 29°55' W 090°07'0 0.0
2016-Aug-01 21:34N 29°55' W 090°07'1 0.9
2016-Aug-01 20:33N 29°55' W 090°06'0 0.2
2016-Aug-01 19:34N 29°55' W 090°06'1 0.5
2016-Aug-01 18:34N 29°55' W 090°07'0 0.2
2016-Aug-01 17:33N 29°55' W 090°06'0 0.0
2016-Aug-01 16:26N 29°55' W 090°06'0 0.0
2016-Aug-01 15:33N 29°55' W 090°06'0 0.0
2016-Aug-01 14:25N 29°55' W 090°06'0 0.0
2016-Aug-01 13:32N 29°55' W 090°06'0 0.0
2016-Aug-01 12:33N 29°55' W 090°06'0 0.0
2016-Aug-01 11:33N 29°55' W 090°06'0 0.4
2016-Aug-01 10:33N 29°55' W 090°07'1 0.7
2016-Aug-01 09:33N 29°55' W 090°06'0 0.0
2016-Aug-01 08:33N 29°55' W 090°06'0 0.0
2016-Aug-01 07:33N 29°55' W 090°06'0 0.0
2016-Aug-01 04:33N 29°55' W 090°06'0 0.0
2016-Aug-01 03:33N 29°55' W 090°06'0 0.0
2016-Aug-01 02:33N 29°55' W 090°06'0 0.3
2016-Aug-01 01:34N 29°55' W 090°06'0 0.3
2016-Aug-01 00:33N 29°55' W 090°06'0 0.0
2016-Jul-31 23:34N 29°55' W 090°06'0 0.0
2016-Jul-31 22:34N 29°55' W 090°06'0 0.0
2016-Jul-31 21:33N 29°55' W 090°06'0 0.0
2016-Jul-31 20:33N 29°55' W 090°06'0 0.0
2016-Jul-31 19:33N 29°55' W 090°06'0 0.0
2016-Jul-31 18:34N 29°55' W 090°06'0 0.0
2016-Jul-31 17:34N 29°55' W 090°06'0 0.0
2016-Jul-31 16:33N 29°55' W 090°06'0 0.0
2016-Jul-31 15:34N 29°55' W 090°06'0 0.0
2016-Jul-31 14:33N 29°55' W 090°06'0 0.0
2016-Jul-31 13:34N 29°55' W 090°06'0 0.0
2016-Jul-31 12:34N 29°55' W 090°06'0 0.0
2016-Jul-31 11:34N 29°55' W 090°06'0 0.0
2016-Jul-31 10:33N 29°55' W 090°06'0 0.0
2016-Jul-31 09:34N 29°55' W 090°06'0 0.0
2016-Jul-31 08:34N 29°55' W 090°06'4 3.7
2016-Jul-31 07:33N 29°57' W 090°09'1 0.1
2016-Jul-31 00:32N 29°57' W 090°09'4 0.7
2016-Jul-30 19:33N 29°55' W 090°06'0 0.0
2016-Jul-30 18:22N 29°55' W 090°06'0 0.0
2016-Jul-30 17:33N 29°55' W 090°06'1 0.4
2016-Jul-30 15:31N 29°55' W 090°07'1 0.9
2016-Jul-30 14:34N 29°55' W 090°06'0 0.0
2016-Jul-30 13:33N 29°55' W 090°06'0 0.0
2016-Jul-30 12:34N 29°55' W 090°06'0 0.0
2016-Jul-30 11:34N 29°55' W 090°06'0 0.0
2016-Jul-30 10:30N 29°55' W 090°06'0 0.0
2016-Jul-30 09:34N 29°55' W 090°06'0 0.0
2016-Jul-30 08:34N 29°55' W 090°06'0 0.0
2016-Jul-30 07:34N 29°55' W 090°06'0 0.0
2016-Jul-30 06:33N 29°55' W 090°06'0 0.0
2016-Jul-30 05:34N 29°55' W 090°06'0 0.0
2016-Jul-30 04:33N 29°55' W 090°06'0 0.0
2016-Jul-30 03:33N 29°55' W 090°06'0 0.0
2016-Jul-30 02:33N 29°55' W 090°06'0 0.0
2016-Jul-30 01:34N 29°55' W 090°06'0 0.0
2016-Jul-30 00:34N 29°55' W 090°06'0 0.0
2016-Jul-29 23:34N 29°55' W 090°06'0 0.0
2016-Jul-29 22:34N 29°55' W 090°06'0 0.0
2016-Jul-29 21:34N 29°55' W 090°06'0 0.0
2016-Jul-29 20:34N 29°55' W 090°06'0 0.0
2016-Jul-29 19:34N 29°55' W 090°06'0 0.0
2016-Jul-29 18:34N 29°55' W 090°06'0 0.0
2016-Jul-29 17:33N 29°55' W 090°06'0 0.0
2016-Jul-29 16:34N 29°55' W 090°06'0 0.0
2016-Jul-29 15:34N 29°55' W 090°06'0 0.0
2016-Jul-29 14:33N 29°55' W 090°06'0 0.0
2016-Jul-29 13:34N 29°55' W 090°06'0 0.0
2016-Jul-29 12:20N 29°55' W 090°06'0 0.0
2016-Jul-29 11:34N 29°55' W 090°06'0 0.0
2016-Jul-29 10:33N 29°55' W 090°06'0 0.0
2016-Jul-29 09:34N 29°55' W 090°06'0 0.0
2016-Jul-29 08:34N 29°55' W 090°06'0 0.0
2016-Jul-29 07:34N 29°55' W 090°06'0 0.0
2016-Jul-29 06:34N 29°55' W 090°06'0 0.0
2016-Jul-29 05:33N 29°55' W 090°06'0 0.0
2016-Jul-29 04:29N 29°55' W 090°06'0 0.0
2016-Jul-29 03:34N 29°55' W 090°06'0 0.4
2016-Jul-29 02:34N 29°55' W 090°06'0 0.0
2016-Jul-29 01:34N 29°55' W 090°06'3 3.2
2016-Jul-29 00:34N 29°57' W 090°03'0 0.0
2016-Jul-28 23:34N 29°57' W 090°03'0 0.0
2016-Jul-28 22:34N 29°57' W 090°03'0 0.0
2016-Jul-28 21:34N 29°57' W 090°03'0 0.0
2016-Jul-28 20:34N 29°57' W 090°03'0 0.0
2016-Jul-28 19:34N 29°57' W 090°03'0 0.0
2016-Jul-28 18:33N 29°57' W 090°03'3 3.3
2016-Jul-28 17:33N 29°55' W 090°06'0 0.0
2016-Jul-28 16:34N 29°55' W 090°06'0 0.0
2016-Jul-28 15:33N 29°55' W 090°06'0 0.0
2016-Jul-28 14:34N 29°55' W 090°06'0 0.0
2016-Jul-28 13:34N 29°55' W 090°06'0 0.0
2016-Jul-28 12:34N 29°55' W 090°06'0 0.4
2016-Jul-28 11:33N 29°55' W 090°06'0 0.4
2016-Jul-28 10:34N 29°55' W 090°05'1 0.6
2016-Jul-28 09:32N 29°55' W 090°06'0 0.0
2016-Jul-28 08:32N 29°55' W 090°06'0 0.0
2016-Jul-28 07:32N 29°55' W 090°06'0 0.0
2016-Jul-28 06:25N 29°55' W 090°06'0 0.0
2016-Jul-28 05:33N 29°55' W 090°06'0 0.0
2016-Jul-28 04:33N 29°55' W 090°06'0 0.0
2016-Jul-28 03:31N 29°55' W 090°06'0 0.0
2016-Jul-28 02:33N 29°55' W 090°06'0 0.0
2016-Jul-28 01:34N 29°55' W 090°06'0 0.0
2016-Jul-28 00:34N 29°55' W 090°06'0 0.1
2016-Jul-27 23:34N 29°55' W 090°06'0 0.0
2016-Jul-27 22:33N 29°55' W 090°06'0 0.0
2016-Jul-27 21:34N 29°55' W 090°06'0 0.0
2016-Jul-27 20:33N 29°55' W 090°06'0 0.0
2016-Jul-27 18:26N 29°55' W 090°06'4 5.0
2016-Jul-27 17:34N 29°58' W 090°02'0 0.0
2016-Jul-27 16:34N 29°58' W 090°02'0 0.0
2016-Jul-27 15:34N 29°58' W 090°02'0 0.0
2016-Jul-27 14:34N 29°58' W 090°02'1 1.4
2016-Jul-27 13:33N 29°57' W 090°04'3 3.1
2016-Jul-27 12:33N 29°55' W 090°06'0 0.0
2016-Jul-27 11:31N 29°55' W 090°06'0 0.0
2016-Jul-27 10:33N 29°55' W 090°06'0 0.0
2016-Jul-27 09:33N 29°55' W 090°06'0 0.0
2016-Jul-27 08:10N 29°55' W 090°06'0 0.5
2016-Jul-27 07:31N 29°55' W 090°06'0 0.2
2016-Jul-27 05:29N 29°55' W 090°06'0 0.0
2016-Jul-27 04:33N 29°55' W 090°06'0 0.0
2016-Jul-27 03:33N 29°55' W 090°06'0 0.0
2016-Jul-27 02:33N 29°55' W 090°06'0 0.0
2016-Jul-27 01:31N 29°55' W 090°06'0 0.4
2016-Jul-27 00:33N 29°55' W 090°06'0 0.4
2016-Jul-26 23:33N 29°55' W 090°06'0 0.0
2016-Jul-26 22:33N 29°55' W 090°06'0 0.0
2016-Jul-26 21:33N 29°55' W 090°06'2 1.9
2016-Jul-26 20:33N 29°55' W 090°04'2 1.8
2016-Jul-26 19:33N 29°57' W 090°03'0 0.0
2016-Jul-26 18:33N 29°57' W 090°03'0 0.0
2016-Jul-26 17:33N 29°57' W 090°03'3 3.3
2016-Jul-26 16:33N 29°55' W 090°06'0 0.0
2016-Jul-26 15:33N 29°55' W 090°06'0 0.0
2016-Jul-26 14:33N 29°55' W 090°06'0 0.0
2016-Jul-26 13:30N 29°55' W 090°06'0 0.0
2016-Jul-26 11:30N 29°55' W 090°06'0 0.0
2016-Jul-26 10:27N 29°55' W 090°06'0 0.5
2016-Jul-26 09:33N 29°55' W 090°06'0 0.4
2016-Jul-26 08:33N 29°55' W 090°06'0 0.0
2016-Jul-26 07:33N 29°55' W 090°06'0 0.0
2016-Jul-26 06:33N 29°55' W 090°06'0 0.0
2016-Jul-26 05:33N 29°55' W 090°06'1 0.5
2016-Jul-26 04:33N 29°55' W 090°07'1 0.6
2016-Jul-26 03:33N 29°55' W 090°06'0 0.0
2016-Jul-26 02:30N 29°55' W 090°06'0 0.0
2016-Jul-26 01:33N 29°55' W 090°06'0 0.0
2016-Jul-26 00:33N 29°55' W 090°06'1 0.7
2016-Jul-25 23:33N 29°55' W 090°07'1 0.6
2016-Jul-25 22:29N 29°55' W 090°06'  
Track history (hours):
 
Tides and Currents Weather Stations Pressure Air Temp Water Temp Dewpoint Dewpoint Depression Visibility Wind Speed Wind Dir Waves Ship Positions

Captain Jimmy T Moran

Owner: Moran Towing Corp, New Cannan, CT. More information available from US FCC via Universal Licensing System and Coast Guard Vessel Documentation Center.

Last reported at 2016-Aug-04 22:10 UTC. Time now 2016-Aug-31 16:04 UTC.
Position N 29°55' W 090°06'.
Warning: this ship's position is 26 days out of date.

Length 26 m; draft 4.9 m.

Type: Tug. MMSI: 367382920.

Date/timePositionNaut miles runAvg speedWind from/ knotsBaromVisibWave heightAir tempDewpointWater temp
2016-Aug-04 22:10N 29°55' W 090°06'0 0.0
2016-Aug-04 21:33N 29°55' W 090°06'0 0.0
2016-Aug-04 20:33N 29°55' W 090°06'0 0.0
2016-Aug-04 19:32N 29°55' W 090°06'0 0.0
2016-Aug-04 18:32N 29°55' W 090°06'0 0.0
2016-Aug-04 17:33N 29°55' W 090°06'0 0.0
2016-Aug-04 16:33N 29°55' W 090°06'0 0.0
2016-Aug-04 15:33N 29°55' W 090°06'0 0.0
2016-Aug-04 14:33N 29°55' W 090°06'0 0.1
2016-Aug-04 13:33N 29°55' W 090°06'0 0.0
2016-Aug-04 12:33N 29°55' W 090°06'0 0.0
2016-Aug-04 11:33N 29°55' W 090°06'0 0.3
2016-Aug-04 10:33N 29°55' W 090°06'0 0.2
2016-Aug-04 09:34N 29°55' W 090°06'0 0.0
2016-Aug-04 04:33N 29°55' W 090°06'0 0.0
2016-Aug-04 03:32N 29°55' W 090°06'0 0.0
2016-Aug-04 02:33N 29°55' W 090°06'3 3.4
2016-Aug-04 01:33N 29°57' W 090°03'0 0.4
2016-Aug-04 00:34N 29°57' W 090°03'0 0.4
2016-Aug-03 23:33N 29°57' W 090°03'3 3.2
2016-Aug-03 22:33N 29°55' W 090°06'0 0.0
2016-Aug-03 21:34N 29°55' W 090°06'0 0.0
2016-Aug-03 20:33N 29°55' W 090°06'0 0.0
2016-Aug-03 19:33N 29°55' W 090°06'0 0.0
2016-Aug-03 18:34N 29°55' W 090°06'3 3.0
2016-Aug-03 17:34N 29°57' W 090°03'3 2.7
2016-Aug-03 16:33N 29°57' W 090°00'1 0.7
2016-Aug-03 15:33N 29°57' W 090°01'2 1.9
2016-Aug-03 14:33N 29°58' W 090°03'4 3.6
2016-Aug-03 13:34N 29°55' W 090°06'0 0.0
2016-Aug-03 12:33N 29°55' W 090°06'0 0.0
2016-Aug-03 11:33N 29°55' W 090°06'0 0.0
2016-Aug-03 10:34N 29°55' W 090°06'1 0.7
2016-Aug-03 09:33N 29°55' W 090°07'1 0.8
2016-Aug-03 08:33N 29°55' W 090°06'0 0.0
2016-Aug-03 07:33N 29°55' W 090°06'0 0.0
2016-Aug-03 06:33N 29°55' W 090°06'0 0.0
2016-Aug-03 04:33N 29°55' W 090°06'0 0.0
2016-Aug-03 03:33N 29°55' W 090°06'0 0.0
2016-Aug-03 02:33N 29°55' W 090°06'0 0.0
2016-Aug-03 01:33N 29°55' W 090°06'0 0.0
2016-Aug-03 00:33N 29°55' W 090°06'0 0.0
2016-Aug-02 23:34N 29°55' W 090°06'0 0.0
2016-Aug-02 22:33N 29°55' W 090°06'0 0.0
2016-Aug-02 21:33N 29°55' W 090°06'1 0.9
2016-Aug-02 20:34N 29°55' W 090°05'1 1.1
2016-Aug-02 19:33N 29°55' W 090°04'4 4.2
2016-Aug-02 18:33N 29°55' W 090°08'2 2.2
2016-Aug-02 17:33N 29°55' W 090°06'0 0.0
2016-Aug-02 15:20N 29°55' W 090°06'0 0.0
2016-Aug-02 13:33N 29°55' W 090°06'0 0.4
2016-Aug-02 12:32N 29°55' W 090°06'0 0.4
2016-Aug-02 11:33N 29°55' W 090°06'0 0.0
2016-Aug-02 10:33N 29°55' W 090°06'0 0.0
2016-Aug-02 09:33N 29°55' W 090°06'0 0.0
2016-Aug-02 08:33N 29°55' W 090°06'0 0.0
2016-Aug-02 07:33N 29°55' W 090°06'0 0.0
2016-Aug-02 06:24N 29°55' W 090°06'0 0.0
2016-Aug-02 04:33N 29°55' W 090°06'0 0.0
2016-Aug-02 03:33N 29°55' W 090°06'0 0.0
2016-Aug-02 02:25N 29°55' W 090°06'0 0.0
2016-Aug-02 01:33N 29°55' W 090°06'2 1.6
2016-Aug-02 00:09N 29°55' W 090°08'1 1.4
2016-Aug-01 23:33N 29°55' W 090°08'1 0.7
2016-Aug-01 22:34N 29°55' W 090°07'0 0.0
2016-Aug-01 21:34N 29°55' W 090°07'1 0.9
2016-Aug-01 20:33N 29°55' W 090°06'0 0.2
2016-Aug-01 19:34N 29°55' W 090°06'1 0.5
2016-Aug-01 18:34N 29°55' W 090°07'0 0.2
2016-Aug-01 17:33N 29°55' W 090°06'0 0.0
2016-Aug-01 16:26N 29°55' W 090°06'0 0.0
2016-Aug-01 15:33N 29°55' W 090°06'0 0.0
2016-Aug-01 14:25N 29°55' W 090°06'0 0.0
2016-Aug-01 13:32N 29°55' W 090°06'0 0.0
2016-Aug-01 12:33N 29°55' W 090°06'0 0.0
2016-Aug-01 11:33N 29°55' W 090°06'0 0.4
2016-Aug-01 10:33N 29°55' W 090°07'1 0.7
2016-Aug-01 09:33N 29°55' W 090°06'0 0.0
2016-Aug-01 08:33N 29°55' W 090°06'0 0.0
2016-Aug-01 07:33N 29°55' W 090°06'0 0.0
2016-Aug-01 04:33N 29°55' W 090°06'0 0.0
2016-Aug-01 03:33N 29°55' W 090°06'0 0.0
2016-Aug-01 02:33N 29°55' W 090°06'0 0.3
2016-Aug-01 01:34N 29°55' W 090°06'0 0.3
2016-Aug-01 00:33N 29°55' W 090°06'0 0.0
2016-Jul-31 23:34N 29°55' W 090°06'0 0.0
2016-Jul-31 22:34N 29°55' W 090°06'0 0.0
2016-Jul-31 21:33N 29°55' W 090°06'0 0.0
2016-Jul-31 20:33N 29°55' W 090°06'0 0.0
2016-Jul-31 19:33N 29°55' W 090°06'0 0.0
2016-Jul-31 18:34N 29°55' W 090°06'0 0.0
2016-Jul-31 17:34N 29°55' W 090°06'0 0.0
2016-Jul-31 16:33N 29°55' W 090°06'0 0.0
2016-Jul-31 15:34N 29°55' W 090°06'0 0.0
2016-Jul-31 14:33N 29°55' W 090°06'0 0.0
2016-Jul-31 13:34N 29°55' W 090°06'0 0.0
2016-Jul-31 12:34N 29°55' W 090°06'0 0.0
2016-Jul-31 11:34N 29°55' W 090°06'0 0.0
2016-Jul-31 10:33N 29°55' W 090°06'0 0.0
2016-Jul-31 09:34N 29°55' W 090°06'0 0.0
2016-Jul-31 08:34N 29°55' W 090°06'4 3.7
2016-Jul-31 07:33N 29°57' W 090°09'1 0.1
2016-Jul-31 00:32N 29°57' W 090°09'4 0.7
2016-Jul-30 19:33N 29°55' W 090°06'0 0.0
2016-Jul-30 18:22N 29°55' W 090°06'0 0.0
2016-Jul-30 17:33N 29°55' W 090°06'1 0.4
2016-Jul-30 15:31N 29°55' W 090°07'1 0.9
2016-Jul-30 14:34N 29°55' W 090°06'0 0.0
2016-Jul-30 13:33N 29°55' W 090°06'0 0.0
2016-Jul-30 12:34N 29°55' W 090°06'0 0.0
2016-Jul-30 11:34N 29°55' W 090°06'0 0.0
2016-Jul-30 10:30N 29°55' W 090°06'0 0.0
2016-Jul-30 09:34N 29°55' W 090°06'0 0.0
2016-Jul-30 08:34N 29°55' W 090°06'0 0.0
2016-Jul-30 07:34N 29°55' W 090°06'0 0.0
2016-Jul-30 06:33N 29°55' W 090°06'0 0.0
2016-Jul-30 05:34N 29°55' W 090°06'0 0.0
2016-Jul-30 04:33N 29°55' W 090°06'0 0.0
2016-Jul-30 03:33N 29°55' W 090°06'0 0.0
2016-Jul-30 02:33N 29°55' W 090°06'0 0.0
2016-Jul-30 01:34N 29°55' W 090°06'0 0.0
2016-Jul-30 00:34N 29°55' W 090°06'0 0.0
2016-Jul-29 23:34N 29°55' W 090°06'0 0.0
2016-Jul-29 22:34N 29°55' W 090°06'0 0.0
2016-Jul-29 21:34N 29°55' W 090°06'0 0.0
2016-Jul-29 20:34N 29°55' W 090°06'0 0.0
2016-Jul-29 19:34N 29°55' W 090°06'0 0.0
2016-Jul-29 18:34N 29°55' W 090°06'0 0.0
2016-Jul-29 17:33N 29°55' W 090°06'0 0.0
2016-Jul-29 16:34N 29°55' W 090°06'0 0.0
2016-Jul-29 15:34N 29°55' W 090°06'0 0.0
2016-Jul-29 14:33N 29°55' W 090°06'0 0.0
2016-Jul-29 13:34N 29°55' W 090°06'0 0.0
2016-Jul-29 12:20N 29°55' W 090°06'0 0.0
2016-Jul-29 11:34N 29°55' W 090°06'0 0.0
2016-Jul-29 10:33N 29°55' W 090°06'0 0.0
2016-Jul-29 09:34N 29°55' W 090°06'0 0.0
2016-Jul-29 08:34N 29°55' W 090°06'0 0.0
2016-Jul-29 07:34N 29°55' W 090°06'0 0.0
2016-Jul-29 06:34N 29°55' W 090°06'0 0.0
2016-Jul-29 05:33N 29°55' W 090°06'0 0.0
2016-Jul-29 04:29N 29°55' W 090°06'0 0.0
2016-Jul-29 03:34N 29°55' W 090°06'0 0.4
2016-Jul-29 02:34N 29°55' W 090°06'0 0.0
2016-Jul-29 01:34N 29°55' W 090°06'3 3.2
2016-Jul-29 00:34N 29°57' W 090°03'0 0.0
2016-Jul-28 23:34N 29°57' W 090°03'0 0.0
2016-Jul-28 22:34N 29°57' W 090°03'0 0.0
2016-Jul-28 21:34N 29°57' W 090°03'0 0.0
2016-Jul-28 20:34N 29°57' W 090°03'0 0.0
2016-Jul-28 19:34N 29°57' W 090°03'0 0.0
2016-Jul-28 18:33N 29°57' W 090°03'3 3.3
2016-Jul-28 17:33N 29°55' W 090°06'0 0.0
2016-Jul-28 16:34N 29°55' W 090°06'0 0.0
2016-Jul-28 15:33N 29°55' W 090°06'0 0.0
2016-Jul-28 14:34N 29°55' W 090°06'0 0.0
2016-Jul-28 13:34N 29°55' W 090°06'0 0.0
2016-Jul-28 12:34N 29°55' W 090°06'0 0.4
2016-Jul-28 11:33N 29°55' W 090°06'0 0.4
2016-Jul-28 10:34N 29°55' W 090°05'1 0.6
2016-Jul-28 09:32N 29°55' W 090°06'0 0.0
2016-Jul-28 08:32N 29°55' W 090°06'0 0.0
2016-Jul-28 07:32N 29°55' W 090°06'0 0.0
2016-Jul-28 06:25N 29°55' W 090°06'0 0.0
2016-Jul-28 05:33N 29°55' W 090°06'0 0.0
2016-Jul-28 04:33N 29°55' W 090°06'0 0.0
2016-Jul-28 03:31N 29°55' W 090°06'0 0.0
2016-Jul-28 02:33N 29°55' W 090°06'0 0.0
2016-Jul-28 01:34N 29°55' W 090°06'0 0.0
2016-Jul-28 00:34N 29°55' W 090°06'0 0.1
2016-Jul-27 23:34N 29°55' W 090°06'0 0.0
2016-Jul-27 22:33N 29°55' W 090°06'0 0.0
2016-Jul-27 21:34N 29°55' W 090°06'0 0.0
2016-Jul-27 20:33N 29°55' W 090°06'0 0.0
2016-Jul-27 18:26N 29°55' W 090°06'4 5.0
2016-Jul-27 17:34N 29°58' W 090°02'0 0.0
2016-Jul-27 16:34N 29°58' W 090°02'0 0.0
2016-Jul-27 15:34N 29°58' W 090°02'0 0.0
2016-Jul-27 14:34N 29°58' W 090°02'1 1.4
2016-Jul-27 13:33N 29°57' W 090°04'3 3.1
2016-Jul-27 12:33N 29°55' W 090°06'0 0.0
2016-Jul-27 11:31N 29°55' W 090°06'0 0.0
2016-Jul-27 10:33N 29°55' W 090°06'0 0.0
2016-Jul-27 09:33N 29°55' W 090°06'0 0.0
2016-Jul-27 08:10N 29°55' W 090°06'0 0.5
2016-Jul-27 07:31N 29°55' W 090°06'0 0.2
2016-Jul-27 05:29N 29°55' W 090°06'0 0.0
2016-Jul-27 04:33N 29°55' W 090°06'0 0.0
2016-Jul-27 03:33N 29°55' W 090°06'0 0.0
2016-Jul-27 02:33N 29°55' W 090°06'0 0.0
2016-Jul-27 01:31N 29°55' W 090°06'0 0.4
2016-Jul-27 00:33N 29°55' W 090°06'0 0.4
2016-Jul-26 23:33N 29°55' W 090°06'0 0.0
2016-Jul-26 22:33N 29°55' W 090°06'0 0.0
2016-Jul-26 21:33N 29°55' W 090°06'2 1.9
2016-Jul-26 20:33N 29°55' W 090°04'2 1.8
2016-Jul-26 19:33N 29°57' W 090°03'0 0.0
2016-Jul-26 18:33N 29°57' W 090°03'0 0.0
2016-Jul-26 17:33N 29°57' W 090°03'3 3.3
2016-Jul-26 16:33N 29°55' W 090°06'0 0.0
2016-Jul-26 15:33N 29°55' W 090°06'0 0.0
2016-Jul-26 14:33N 29°55' W 090°06'0 0.0
2016-Jul-26 13:30N 29°55' W 090°06'0 0.0
2016-Jul-26 11:30N 29°55' W 090°06'0 0.0
2016-Jul-26 10:27N 29°55' W 090°06'0 0.5
2016-Jul-26 09:33N 29°55' W 090°06'0 0.4
2016-Jul-26 08:33N 29°55' W 090°06'0 0.0
2016-Jul-26 07:33N 29°55' W 090°06'0 0.0
2016-Jul-26 06:33N 29°55' W 090°06'0 0.0
2016-Jul-26 05:33N 29°55' W 090°06'1 0.5
2016-Jul-26 04:33N 29°55' W 090°07'1 0.6
2016-Jul-26 03:33N 29°55' W 090°06'0 0.0
2016-Jul-26 02:30N 29°55' W 090°06'0 0.0
2016-Jul-26 01:33N 29°55' W 090°06'0 0.0
2016-Jul-26 00:33N 29°55' W 090°06'1 0.7
2016-Jul-25 23:33N 29°55' W 090°07'1 0.6
2016-Jul-25 22:29N 29°55' W 090°06'  

Dump ship's entire track history